Time;durP1;ratioP1;P1;durP2;ratioP2;P2;SDS_P1;SDS_P2;PMS_P1;PMS_P2;Temp;Humidity;BMP_temperature;BMP_pressure;BME280_temperature;BME280_humidity;BME280_pressure;Samples;Min_cycle;Max_cycle;Signal;HPM_P1;HPM_P2
2023/07/13 00:01:24;;;;;;;5.78;1.88;;;;;;;13.89;100.00;100444.53;5115654;28;20549;-93
2023/07/13 00:03:50;;;;;;;9.63;1.73;;;;;;;13.80;100.00;100439.97;5115733;28;20032;-92
2023/07/13 00:06:15;;;;;;;5.20;1.88;;;;;;;13.71;100.00;100444.06;5115372;28;20055;-92
2023/07/13 00:08:41;;;;;;;6.07;1.63;;;;;;;13.75;100.00;100437.72;5114250;28;20023;-93
2023/07/13 00:11:06;;;;;;;6.28;2.17;;;;;;;13.65;100.00;100437.53;5115517;28;20027;-93
2023/07/13 00:13:32;;;;;;;6.90;1.70;;;;;;;13.70;100.00;100432.88;5115425;28;20027;-93
2023/07/13 00:15:58;;;;;;;4.90;1.60;;;;;;;13.59;100.00;100437.97;5115405;28;20392;-92
2023/07/13 00:18:24;;;;;;;6.10;1.88;;;;;;;13.63;100.00;100436.84;5115575;28;20489;-93
2023/07/13 00:20:49;;;;;;;5.50;1.90;;;;;;;13.62;100.00;100435.16;5115565;28;20046;-93
2023/07/13 00:23:16;;;;;;;8.05;1.63;;;;;;;13.59;100.00;100435.38;5113977;28;20031;-93
2023/07/13 00:25:42;;;;;;;3.00;1.48;;;;;;;13.59;100.00;100425.00;5115151;28;20053;-93
2023/07/13 00:28:08;;;;;;;5.78;1.90;;;;;;;13.69;100.00;100430.38;5115493;28;20020;-93
2023/07/13 00:30:33;;;;;;;4.05;1.55;;;;;;;13.52;100.00;100433.31;5115225;28;20102;-93
2023/07/13 00:33:01;;;;;;;5.47;1.80;;;;;;;13.44;100.00;100437.28;5115082;28;20027;-92
2023/07/13 00:35:27;;;;;;;7.43;1.40;;;;;;;13.52;100.00;100444.53;5115124;28;20037;-93
2023/07/13 00:37:52;;;;;;;8.05;1.73;;;;;;;13.64;100.00;100438.47;5115162;28;20080;-93
2023/07/13 00:40:18;;;;;;;4.35;1.60;;;;;;;13.53;100.00;100434.97;5114940;28;20019;-92
2023/07/13 00:42:43;;;;;;;4.93;1.90;;;;;;;13.52;100.00;100444.53;5114935;28;20026;-93
2023/07/13 00:45:11;;;;;;;7.97;2.05;;;;;;;13.57;100.00;100447.63;5115095;28;20030;-92
2023/07/13 00:47:37;;;;;;;6.68;2.03;;;;;;;13.65;100.00;100445.31;5114812;28;20488;-93
2023/07/13 00:50:06;;;;;;;6.05;1.77;;;;;;;13.73;100.00;100449.97;5115155;28;20036;-94
2023/07/13 00:52:32;;;;;;;9.68;2.30;;;;;;;13.70;100.00;100448.44;5113550;28;20126;-92
2023/07/13 00:54:58;;;;;;;9.57;1.98;;;;;;;13.74;100.00;100454.22;5115056;28;20090;-93
2023/07/13 00:57:24;;;;;;;5.18;1.85;;;;;;;13.79;100.00;100440.94;5114539;28;20102;-93
2023/07/13 00:59:57;;;;;;;8.52;1.83;;;;;;;13.72;100.00;100444.88;5114456;28;20030;-92
2023/07/13 01:02:24;;;;;;;3.70;1.67;;;;;;;13.81;100.00;100441.66;5114363;28;20031;-92
2023/07/13 01:04:49;;;;;;;13.02;1.88;;;;;;;13.77;100.00;100447.97;5114735;28;20028;-92
2023/07/13 01:07:15;;;;;;;6.68;2.33;;;;;;;13.68;100.00;100445.13;5114361;28;20016;-93
2023/07/13 01:09:40;;;;;;;6.60;1.85;;;;;;;13.75;100.00;100436.88;5114390;28;20077;-93
2023/07/13 01:12:07;;;;;;;5.13;1.73;;;;;;;13.70;100.00;100442.41;5114517;28;20106;-93
2023/07/13 01:14:32;;;;;;;5.97;1.88;;;;;;;13.66;100.00;100446.97;5113296;28;20026;-92
2023/07/13 01:17:00;;;;;;;3.95;1.73;;;;;;;13.69;100.00;100444.16;5114677;28;20024;-93
2023/07/13 01:19:35;;;;;;;6.70;1.95;;;;;;;13.66;100.00;100441.78;5114261;28;20023;-93
2023/07/13 01:22:01;;;;;;;6.00;2.28;;;;;;;13.66;100.00;100444.38;5114009;28;20028;-92
2023/07/13 01:24:27;;;;;;;6.97;2.22;;;;;;;13.64;100.00;100438.47;5113956;28;20034;-93
2023/07/13 01:26:52;;;;;;;2.85;1.75;;;;;;;13.67;100.00;100440.03;5114137;28;20051;-93
2023/07/13 01:29:18;;;;;;;4.38;1.60;;;;;;;13.57;100.00;100436.44;5114071;28;20028;-92
2023/07/13 01:31:44;;;;;;;6.20;1.70;;;;;;;13.62;100.00;100435.16;5113906;28;20590;-92
2023/07/13 01:34:10;;;;;;;5.03;2.13;;;;;;;13.66;100.00;100435.78;5113762;28;20091;-93
2023/07/13 01:36:35;;;;;;;4.25;1.73;;;;;;;13.68;100.00;100434.75;5113820;28;20467;-92
2023/07/13 01:39:01;;;;;;;4.13;1.23;;;;;;;13.58;100.00;100432.88;5113732;28;20034;-93
2023/07/13 01:41:27;;;;;;;7.68;2.05;;;;;;;13.57;100.00;100426.88;5113913;28;20088;-93
2023/07/13 01:43:52;;;;;;;4.20;1.48;;;;;;;13.53;100.00;100427.19;5113890;28;20102;-94
2023/07/13 01:46:18;;;;;;;2.83;1.52;;;;;;;13.50;100.00;100420.47;5113842;28;20031;-93
2023/07/13 01:48:43;;;;;;;4.88;1.77;;;;;;;13.73;100.00;100428.38;5113702;28;20031;-93
2023/07/13 01:51:08;;;;;;;5.50;1.67;;;;;;;13.57;100.00;100429.47;5113842;28;20573;-93
2023/07/13 01:53:34;;;;;;;5.00;1.60;;;;;;;13.50;100.00;100433.41;5113890;28;20427;-94
2023/07/13 01:55:59;;;;;;;6.82;2.17;;;;;;;13.48;100.00;100432.69;5113591;28;20027;-93
2023/07/13 01:58:24;;;;;;;3.10;1.58;;;;;;;13.43;100.00;100419.22;5113430;28;20020;-93
2023/07/13 02:00:51;;;;;;;3.97;1.63;;;;;;;13.39;100.00;100428.19;5113335;28;20461;-93
2023/07/13 02:03:17;;;;;;;4.88;1.40;;;;;;;13.37;100.00;100424.84;5113929;28;20028;-93
2023/07/13 02:05:44;;;;;;;6.25;2.38;;;;;;;13.34;100.00;100420.72;5113471;28;20015;-94
2023/07/13 02:08:09;;;;;;;9.38;2.17;;;;;;;13.32;100.00;100422.56;5113406;28;20024;-93
2023/07/13 02:10:34;;;;;;;6.53;1.80;;;;;;;13.36;100.00;100418.81;5112795;28;20051;-93
2023/07/13 02:13:00;;;;;;;3.15;1.70;;;;;;;13.36;100.00;100418.81;5113211;28;20135;-92
2023/07/13 02:15:25;;;;;;;5.22;1.73;;;;;;;13.41;100.00;100416.75;5113315;28;20027;-93
2023/07/13 02:17:51;;;;;;;5.20;1.75;;;;;;;13.43;100.00;100419.22;5113222;28;20015;-93
2023/07/13 02:20:16;;;;;;;6.32;1.52;;;;;;;13.43;100.00;100419.22;5113104;28;20028;-92
2023/07/13 02:22:41;;;;;;;6.25;1.80;;;;;;;13.43;100.00;100417.47;5112971;28;20027;-92
2023/07/13 02:25:07;;;;;;;8.57;2.03;;;;;;;13.46;100.00;100417.25;5113164;28;20026;-92
2023/07/13 02:27:32;;;;;;;5.57;1.92;;;;;;;13.42;100.00;100410.63;5111916;28;20436;-93
2023/07/13 02:29:58;;;;;;;5.47;2.10;;;;;;;13.41;100.00;100406.38;5113174;28;20058;-93
2023/07/13 02:32:25;;;;;;;8.25;1.85;;;;;;;13.39;100.00;100412.63;5113072;28;20027;-93
2023/07/13 02:34:52;;;;;;;4.68;1.88;;;;;;;13.37;100.00;100409.31;5113103;28;20023;-93
2023/07/13 02:37:17;;;;;;;8.23;1.95;;;;;;;13.26;100.00;100403.06;5113230;28;20020;-93
2023/07/13 02:39:43;;;;;;;5.72;1.92;;;;;;;13.25;100.00;100411.75;5113100;28;20077;-93
2023/07/13 02:42:08;;;;;;;8.90;2.63;;;;;;;13.24;100.00;100399.75;5111502;28;20116;-92
2023/07/13 02:44:33;;;;;;;3.63;1.45;;;;;;;13.21;100.00;100414.66;5111401;28;20024;-92
2023/07/13 02:46:59;;;;;;;4.75;1.92;;;;;;;13.17;100.00;100401.09;5111585;28;20023;-92
2023/07/13 02:49:24;;;;;;;6.25;1.92;;;;;;;13.20;100.00;100410.44;5111275;28;20054;-92
2023/07/13 02:51:51;;;;;;;6.95;2.20;;;;;;;13.10;100.00;100402.47;5113092;28;20035;-92
2023/07/13 02:54:16;;;;;;;4.57;1.90;;;;;;;13.03;100.00;100401.22;5111431;28;20016;-92
2023/07/13 02:56:43;;;;;;;5.35;1.80;;;;;;;13.05;100.00;100409.72;5112716;28;20038;-93
2023/07/13 02:59:09;;;;;;;9.70;1.95;;;;;;;13.04;100.00;100408.03;5112442;28;20027;-93
2023/07/13 03:01:35;;;;;;;8.20;2.10;;;;;;;12.97;100.00;100406.81;5111074;28;20425;-92
2023/07/13 03:04:00;;;;;;;5.97;2.45;;;;;;;13.00;100.00;100409.22;5111193;28;20350;-93
2023/07/13 03:06:30;;;;;;;5.15;2.00;;;;;;;12.99;100.00;100413.53;5112379;28;20073;-93
2023/07/13 03:08:55;;;;;;;6.10;2.08;;;;;;;12.91;100.00;100407.25;5112047;28;20069;-93
2023/07/13 03:11:21;;;;;;;8.15;2.20;;;;;;;13.00;100.00;100416.97;5111088;28;20020;-92
2023/07/13 03:13:48;;;;;;;7.70;2.03;;;;;;;12.95;100.00;100408.66;5112275;28;20016;-93
2023/07/13 03:16:15;;;;;;;7.47;2.55;;;;;;;12.92;100.00;100411.47;5110921;28;20031;-92
2023/07/13 03:18:41;;;;;;;8.18;1.85;;;;;;;12.94;100.00;100404.44;5112209;28;20023;-94
2023/07/13 03:21:07;;;;;;;6.85;2.10;;;;;;;12.94;100.00;100400.06;5112065;28;20019;-93
2023/07/13 03:23:32;;;;;;;12.18;3.10;;;;;;;12.98;100.00;100409.31;5115230;28;20147;-93
2023/07/13 03:26:06;;;;;;;5.28;1.73;;;;;;;13.00;100.00;100410.03;5116388;28;20016;-93
2023/07/13 03:28:32;;;;;;;9.15;2.40;;;;;;;12.99;100.00;100402.34;5115196;28;20027;-93
2023/07/13 03:31:13;;;;;;;5.60;2.70;;;;;;;13.01;100.00;100408.25;5116217;28;20102;-92
2023/07/13 03:33:38;;;;;;;6.77;1.50;;;;;;;13.05;100.00;100409.72;5116205;28;20028;-92
2023/07/13 03:36:05;;;;;;;4.03;1.75;;;;;;;13.03;100.00;100409.00;5116394;28;20794;-93
2023/07/13 03:38:31;;;;;;;10.68;1.55;;;;;;;13.01;100.00;100414.28;5116085;28;20556;-92
2023/07/13 03:40:57;;;;;;;5.45;2.83;;;;;;;12.93;100.00;100419.16;5115950;28;20123;-93
2023/07/13 03:43:22;;;;;;;5.28;1.63;;;;;;;12.96;100.00;100410.34;5114668;28;20063;-94
2023/07/13 03:45:47;;;;;;;3.70;1.80;;;;;;;13.01;100.00;100422.03;5116028;28;20480;-92
2023/07/13 03:48:14;;;;;;;4.95;1.42;;;;;;;13.06;100.00;100421.72;5115917;28;20020;-92
2023/07/13 03:50:39;;;;;;;6.82;2.20;;;;;;;13.05;100.00;100422.69;5115923;28;20023;-93
2023/07/13 03:53:04;;;;;;;6.30;2.90;;;;;;;13.07;100.00;100426.81;5116153;28;20027;-92
2023/07/13 03:55:30;;;;;;;4.43;2.08;;;;;;;13.03;100.00;100432.31;5115675;28;20024;-93
2023/07/13 03:58:00;;;;;;;5.88;1.80;;;;;;;12.94;100.00;100423.38;5115732;28;20016;-93
2023/07/13 04:00:26;;;;;;;5.60;1.73;;;;;;;12.97;100.00;100423.19;5114180;28;20050;-93
2023/07/13 04:02:51;;;;;;;4.97;2.22;;;;;;;12.99;100.00;100425.66;5114254;28;20497;-93
2023/07/13 04:05:17;;;;;;;5.18;2.00;;;;;;;13.02;100.00;100430.63;5114246;28;20032;-93
2023/07/13 04:07:42;;;;;;;7.95;1.77;;;;;;;13.04;100.00;100431.38;5115459;28;20465;-92
2023/07/13 04:10:08;;;;;;;7.55;1.83;;;;;;;13.07;100.00;100431.19;5115374;28;20035;-93
2023/07/13 04:12:34;;;;;;;6.45;2.42;;;;;;;13.12;100.00;100434.28;5115370;28;20031;-92
2023/07/13 04:14:59;;;;;;;6.78;2.30;;;;;;;13.11;100.00;100435.19;5115268;28;20027;-93
2023/07/13 04:17:24;;;;;;;6.80;1.80;;;;;;;13.10;100.00;100428.38;5115372;28;20046;-92
2023/07/13 04:19:50;;;;;;;6.45;2.30;;;;;;;13.12;100.00;100439.47;5115378;28;20020;-93
2023/07/13 04:22:15;;;;;;;4.15;1.25;;;;;;;13.16;100.00;100432.28;5115301;28;20035;-93
2023/07/13 04:24:41;;;;;;;6.38;1.88;;;;;;;13.20;100.00;100438.94;5115178;28;20373;-93
2023/07/13 04:27:07;;;;;;;9.27;1.92;;;;;;;13.23;100.00;100446.50;5115126;28;20185;-93
2023/07/13 04:29:32;;;;;;;4.18;2.08;;;;;;;13.27;100.00;100446.22;5114997;28;20461;-93
2023/07/13 04:31:57;;;;;;;9.23;2.03;;;;;;;13.26;100.00;100441.94;5115068;28;20019;-92
2023/07/13 04:34:23;;;;;;;4.82;1.70;;;;;;;13.30;100.00;100440.00;5114532;28;20023;-92
2023/07/13 04:36:49;;;;;;;9.60;2.50;;;;;;;13.31;100.00;100446.81;5115145;28;20069;-93
2023/07/13 04:39:15;;;;;;;4.60;1.63;;;;;;;13.35;100.00;100447.47;5114960;28;20047;-93
2023/07/13 04:41:40;;;;;;;7.45;2.25;;;;;;;13.37;100.00;100453.38;5114843;28;20404;-93
2023/07/13 04:44:06;;;;;;;7.72;2.65;;;;;;;13.37;100.00;100461.97;5114633;28;20107;-92
2023/07/13 04:46:31;;;;;;;3.83;2.30;;;;;;;13.41;100.00;100458.25;5114818;28;20051;-92
2023/07/13 04:48:57;;;;;;;4.30;1.90;;;;;;;13.44;100.00;100457.19;5113488;28;20024;-93
2023/07/13 04:51:23;;;;;;;7.85;2.20;;;;;;;13.39;100.00;100454.91;5115120;28;20035;-93
2023/07/13 04:53:48;;;;;;;6.45;1.95;;;;;;;13.43;100.00;100458.13;5114608;28;20020;-92
2023/07/13 04:56:14;;;;;;;9.10;2.17;;;;;;;13.46;100.00;100455.31;5114588;28;20024;-94
2023/07/13 04:58:40;;;;;;;7.15;2.20;;;;;;;13.51;100.00;100455.84;5114490;28;20027;-93
2023/07/13 05:01:06;;;;;;;7.28;2.15;;;;;;;13.51;100.00;100461.03;5114304;28;20035;-93
2023/07/13 05:03:31;;;;;;;6.05;1.98;;;;;;;13.47;100.00;100454.38;5114243;28;20028;-93
2023/07/13 05:05:59;;;;;;;10.32;2.58;;;;;;;13.49;100.00;100462.91;5114325;28;20020;-93
2023/07/13 05:08:24;;;;;;;6.40;2.03;;;;;;;13.53;100.00;100460.91;5114403;28;20019;-94
2023/07/13 05:10:50;;;;;;;4.65;1.83;;;;;;;13.51;100.00;100466.22;5114236;28;20030;-93
2023/07/13 05:13:16;;;;;;;7.30;2.33;;;;;;;13.57;100.00;100462.34;5112990;28;20035;-93
2023/07/13 05:15:41;;;;;;;5.97;2.22;;;;;;;13.61;100.00;100461.22;5114226;28;20102;-93
2023/07/13 05:18:06;;;;;;;3.22;1.30;;;;;;;13.71;100.00;100464.81;5114078;28;20038;-93
2023/07/13 05:20:32;;;;;;;5.68;2.22;;;;;;;13.84;100.00;100467.38;5114014;28;20034;-92
2023/07/13 05:22:57;;;;;;;5.68;2.15;;;;;;;13.99;100.00;100458.50;5113988;28;20460;-93
2023/07/13 05:25:23;;;;;;;5.38;2.10;;;;;;;13.92;100.00;100467.66;5114058;28;20103;-93
2023/07/13 05:27:48;;;;;;;12.18;2.17;;;;;;;13.82;100.00;100461.47;5114432;28;20031;-92
2023/07/13 05:30:14;;;;;;;6.28;2.22;;;;;;;13.81;100.00;100471.00;5112649;28;20602;-93
2023/07/13 05:32:39;;;;;;;6.13;2.15;;;;;;;13.69;100.00;100470.09;5113702;27;20028;-92
2023/07/13 05:35:06;;;;;;;9.38;2.17;;;;;;;13.68;100.00;100471.06;5113795;28;20019;-92
2023/07/13 05:37:31;;;;;;;6.18;1.80;;;;;;;13.70;100.00;100469.19;5113940;28;20031;-93
2023/07/13 05:39:57;;;;;;;5.90;2.05;;;;;;;13.74;100.00;100479.34;5113906;28;20026;-93
2023/07/13 05:42:22;;;;;;;3.80;1.38;;;;;;;13.77;100.00;100482.53;5113632;28;20032;-93
2023/07/13 05:44:47;;;;;;;7.78;1.92;;;;;;;13.77;100.00;100473.94;5112740;28;20391;-92
2023/07/13 05:47:14;;;;;;;7.40;1.98;;;;;;;13.82;100.00;100483.03;5113491;28;20484;-92
2023/07/13 05:49:40;;;;;;;4.68;1.77;;;;;;;13.76;100.00;100482.66;5113469;28;20055;-93
2023/07/13 05:52:06;;;;;;;5.43;1.48;;;;;;;13.82;100.00;100483.03;5113529;28;20054;-92
2023/07/13 05:54:31;;;;;;;5.35;1.63;;;;;;;13.86;100.00;100484.50;5112022;28;20027;-92
2023/07/13 05:56:56;;;;;;;5.85;1.48;;;;;;;13.88;100.00;100492.19;5113225;28;20020;-92
2023/07/13 05:59:22;;;;;;;6.20;1.70;;;;;;;13.89;100.00;100496.41;5113266;28;20035;-93
2023/07/13 06:01:47;;;;;;;4.25;1.80;;;;;;;13.91;100.00;100502.31;5111859;28;20479;-92
2023/07/13 06:04:12;;;;;;;7.25;2.33;;;;;;;13.90;100.00;100500.69;5113121;28;20047;-92
2023/07/13 06:06:38;;;;;;;4.97;1.95;;;;;;;13.95;100.00;100508.97;5113073;28;20473;-92
2023/07/13 06:09:03;;;;;;;7.45;1.70;;;;;;;13.91;100.00;100510.09;5112900;28;20094;-92
2023/07/13 06:11:29;;;;;;;4.72;1.92;;;;;;;13.93;100.00;100512.59;5113125;28;20477;-92
2023/07/13 06:13:56;;;;;;;4.45;1.60;;;;;;;14.01;100.00;100518.91;5113149;28;20715;-92
2023/07/13 06:16:21;;;;;;;5.43;1.90;;;;;;;14.05;100.00;100517.75;5113055;28;20073;-92
2023/07/13 06:18:47;;;;;;;4.47;1.67;;;;;;;14.04;100.00;100517.84;5112724;27;20028;-92
2023/07/13 06:21:18;;;;;;;5.50;1.65;;;;;;;14.06;100.00;100514.22;5112836;28;20025;-93
2023/07/13 06:23:44;;;;;;;6.32;2.53;;;;;;;14.09;100.00;100531.34;5111442;28;20385;-91
2023/07/13 06:26:10;;;;;;;5.10;1.58;;;;;;;14.22;100.00;100528.72;5112680;28;20063;-92
2023/07/13 06:28:37;;;;;;;6.60;2.22;;;;;;;14.44;100.00;100523.63;5112745;28;20109;-92
2023/07/13 06:31:05;;;;;;;5.60;1.42;;;;;;;15.24;100.00;100528.19;5111264;28;20027;-92
2023/07/13 06:33:31;;;;;;;3.90;1.83;;;;;;;16.52;100.00;100533.84;5112664;28;20179;-93
2023/07/13 06:35:56;;;;;;;3.85;1.60;;;;;;;16.90;100.00;100541.19;5112843;28;20065;-92
2023/07/13 06:38:22;;;;;;;5.90;1.42;;;;;;;16.51;100.00;100540.84;5111174;28;20019;-92
2023/07/13 06:40:47;;;;;;;5.60;1.70;;;;;;;15.95;100.00;100541.00;5112238;28;20030;-92
2023/07/13 06:43:12;;;;;;;5.93;1.40;;;;;;;15.81;100.00;100535.06;5112449;28;20015;-91
2023/07/13 06:45:45;;;;;;;4.82;1.70;;;;;;;15.76;100.00;100546.78;5112522;28;20354;-92
2023/07/13 06:48:11;;;;;;;5.97;1.60;;;;;;;15.62;100.00;100545.22;5112517;28;20023;-92
2023/07/13 06:50:36;;;;;;;6.95;1.80;;;;;;;15.89;100.00;100536.25;5112465;28;20042;-92
2023/07/13 06:53:02;;;;;;;3.53;1.83;;;;;;;16.34;100.00;100547.41;5112215;28;20442;-93
2023/07/13 06:55:27;;;;;;;4.47;1.38;;;;;;;17.91;97.48;100550.94;5112458;28;20019;-92
2023/07/13 06:57:53;;;;;;;5.65;1.65;;;;;;;16.90;100.00;100551.63;5112251;28;20062;-93
2023/07/13 07:00:18;;;;;;;3.42;1.10;;;;;;;16.42;100.00;100557.22;5112357;28;20024;-93
2023/07/13 07:02:44;;;;;;;6.43;1.42;;;;;;;16.38;100.00;100559.22;5112101;28;20059;-93
2023/07/13 07:05:09;;;;;;;3.58;0.88;;;;;;;16.27;100.00;100554.06;5112128;28;20023;-92
2023/07/13 07:07:35;;;;;;;4.82;1.25;;;;;;;16.02;100.00;100555.16;5112247;28;20122;-92
2023/07/13 07:10:00;;;;;;;16.42;2.67;;;;;;;15.87;100.00;100556.34;5112468;28;20454;-93
2023/07/13 07:12:26;;;;;;;22.48;3.10;;;;;;;15.85;100.00;100564.31;5112285;28;20032;-93
2023/07/13 07:14:51;;;;;;;10.25;2.28;;;;;;;15.61;100.00;100567.81;5112212;28;20019;-93
2023/07/13 07:17:17;;;;;;;4.75;1.60;;;;;;;15.42;100.00;100572.75;5110976;28;20023;-92
2023/07/13 07:19:42;;;;;;;3.38;1.30;;;;;;;15.54;100.00;100579.63;5112223;28;20019;-93
2023/07/13 07:22:08;;;;;;;4.40;1.02;;;;;;;15.56;100.00;100582.94;5112043;28;20032;-93
2023/07/13 07:24:33;;;;;;;6.25;1.70;;;;;;;15.47;100.00;100580.22;5112183;28;20027;-92
2023/07/13 07:26:58;;;;;;;4.68;1.48;;;;;;;15.45;100.00;100584.69;5110921;28;20034;-92
2023/07/13 07:29:26;;;;;;;2.85;1.30;;;;;;;15.40;100.00;100588.47;5110933;28;20051;-92
2023/07/13 07:31:51;;;;;;;4.18;1.60;;;;;;;15.32;100.00;100588.22;5112002;28;20108;-92
2023/07/13 07:34:17;;;;;;;5.00;1.30;;;;;;;15.28;100.00;100586.78;5111891;28;20464;-92
2023/07/13 07:36:42;;;;;;;3.17;1.00;;;;;;;15.28;100.00;100581.59;5111922;28;20043;-91
2023/07/13 07:39:07;;;;;;;9.75;1.20;;;;;;;15.34;100.00;100583.75;5111890;28;20041;-91
2023/07/13 07:41:33;;;;;;;3.80;0.95;;;;;;;15.38;100.00;100577.34;5112036;28;20114;-92
2023/07/13 07:43:58;;;;;;;5.35;1.15;;;;;;;15.35;100.00;100580.19;5111865;28;20191;-92
2023/07/13 07:46:24;;;;;;;3.67;1.10;;;;;;;15.37;100.00;100583.50;5111724;28;20055;-92
2023/07/13 07:48:49;;;;;;;3.47;1.23;;;;;;;15.44;100.00;100585.66;5111907;28;20059;-92
2023/07/13 07:51:14;;;;;;;2.15;1.17;;;;;;;15.43;100.00;100591.78;5111852;28;20524;-91
2023/07/13 07:53:40;;;;;;;2.92;1.52;;;;;;;15.27;100.00;100587.75;5111648;28;20077;-91
2023/07/13 07:56:06;;;;;;;4.53;1.40;;;;;;;15.37;100.00;100593.91;5111721;28;20027;-92
2023/07/13 07:58:31;;;;;;;5.28;1.55;;;;;;;15.29;100.00;100588.47;5112072;28;20176;-92
2023/07/13 08:01:05;;;;;;;3.50;0.98;;;;;;;15.41;100.00;100597.09;5110331;28;20039;-92
2023/07/13 08:03:30;;;;;;;2.47;1.05;;;;;;;15.44;100.00;100593.47;5111761;28;20040;-92
2023/07/13 08:05:55;;;;;;;4.25;1.40;;;;;;;15.45;100.00;100584.69;5111641;28;20023;-92
2023/07/13 08:08:21;;;;;;;2.22;0.90;;;;;;;15.59;100.00;100589.69;5112572;28;20100;-92
2023/07/13 08:10:46;;;;;;;6.22;1.50;;;;;;;15.62;100.00;100585.06;5115414;28;20030;-91
2023/07/13 08:13:11;;;;;;;3.45;1.00;;;;;;;15.71;100.00;100591.38;5115177;28;20062;-92
2023/07/13 08:15:37;;;;;;;3.17;1.48;;;;;;;15.78;100.00;100581.34;5115217;28;20522;-92
2023/07/13 08:18:02;;;;;;;5.57;1.17;;;;;;;15.90;100.00;100587.34;5115164;28;20469;-92
2023/07/13 08:20:28;;;;;;;5.88;1.63;;;;;;;15.70;100.00;100584.50;5115208;28;20024;-92
2023/07/13 08:22:53;;;;;;;2.55;2.00;;;;;;;15.83;100.00;100589.63;5113743;28;20027;-93
2023/07/13 08:25:20;;;;;;;4.32;1.38;;;;;;;16.03;100.00;100590.66;5115119;28;20383;-92
2023/07/13 08:27:45;;;;;;;2.35;0.98;;;;;;;16.16;100.00;100591.34;5115154;28;20023;-92
2023/07/13 08:30:11;;;;;;;5.70;1.33;;;;;;;16.35;100.00;100584.72;5113631;28;20023;-92
2023/07/13 08:32:37;;;;;;;2.80;0.90;;;;;;;16.49;100.00;100581.84;5113801;28;20469;-92
2023/07/13 08:35:03;;;;;;;3.13;1.17;;;;;;;16.45;100.00;100585.63;5116570;28;20043;-92
2023/07/13 08:37:29;;;;;;;2.60;0.88;;;;;;;16.42;100.00;100583.28;5114823;28;20023;-91
2023/07/13 08:39:54;;;;;;;4.88;1.92;;;;;;;16.45;100.00;100585.63;5114969;28;20525;-92
2023/07/13 08:42:33;;;;;;;5.55;1.05;;;;;;;16.25;100.00;100585.44;5114594;28;20052;-93
2023/07/13 08:45:14;;;;;;;4.13;1.27;;;;;;;16.34;100.00;100577.81;5114642;28;20034;-92
2023/07/13 08:47:47;;;;;;;4.00;1.17;;;;;;;16.15;100.00;100576.69;5114622;28;20069;-92
2023/07/13 08:50:17;;;;;;;3.05;1.15;;;;;;;16.19;100.00;100580.72;5114524;28;20026;-92
2023/07/13 08:52:43;;;;;;;1.13;0.80;;;;;;;16.16;100.00;100580.13;5114405;28;20055;-92
2023/07/13 08:55:16;;;;;;;3.50;1.20;;;;;;;16.01;100.00;100585.56;5114489;28;20027;-92
2023/07/13 08:57:46;;;;;;;3.47;1.00;;;;;;;16.10;100.00;100591.84;5114568;28;20051;-92
2023/07/13 09:00:14;;;;;;;5.18;1.27;;;;;;;16.14;100.00;100587.22;5114382;28;20106;-92
2023/07/13 09:02:56;;;;;;;5.55;1.27;;;;;;;16.23;100.00;100582.13;5114214;28;20016;-92
2023/07/13 09:05:41;;;;;;;;;;;;;;;16.55;100.00;100586.53;5114846;28;20050;-92
2023/07/13 09:08:32;;;;;;;2.65;1.15;;;;;;;17.20;100.00;100583.94;5114413;28;20397;-92
2023/07/13 09:11:27;;;;;;;8.38;2.72;;;;;;;17.39;100.00;100576.22;5104577;28;20660;-92
2023/07/13 09:14:37;;;;;;;3.03;0.60;;;;;;;17.00;100.00;100575.16;5114173;28;20022;-92
2023/07/13 09:17:08;;;;;;;8.50;0.75;;;;;;;17.25;100.00;100592.22;5097630;27;20127;-93
2023/07/13 09:19:35;;;;;;;0.85;0.55;;;;;;;17.44;100.00;100587.09;5112740;28;20028;-91
2023/07/13 09:22:04;;;;;;;1.83;0.80;;;;;;;17.46;100.00;100582.59;5113988;28;20027;-91
2023/07/13 09:24:51;;;;;;;2.55;0.75;;;;;;;17.62;100.00;100589.13;5112651;28;20023;-92
2023/07/13 09:27:24;;;;;;;3.40;1.23;;;;;;;17.79;100.00;100587.69;5113955;27;20073;-92
2023/07/13 09:29:57;;;;;;;2.20;1.00;;;;;;;18.01;100.00;100586.69;5112569;28;20481;-92
2023/07/13 09:32:26;;;;;;;2.70;0.75;;;;;;;19.19;100.00;100584.06;5112448;28;20027;-92
2023/07/13 09:34:55;;;;;;;3.75;0.95;;;;;;;19.57;94.18;100580.53;5113608;28;20019;-91
2023/07/13 09:37:27;;;;;;;1.83;0.80;;;;;;;19.69;96.15;100580.38;5113844;28;20085;-92
2023/07/13 09:39:53;;;;;;;2.80;0.80;;;;;;;19.53;92.02;100581.81;5113661;28;20023;-92
2023/07/13 09:42:21;;;;;;;2.22;0.90;;;;;;;19.20;88.97;100578.69;5113422;28;20319;-91
2023/07/13 09:44:58;;;;;;;0.75;0.40;;;;;;;19.03;88.14;100585.47;5112226;28;20385;-92
2023/07/13 09:47:29;;;;;;;4.63;0.70;;;;;;;19.04;90.61;100586.28;5112237;28;20027;-92
2023/07/13 09:49:58;;;;;;;3.97;0.95;;;;;;;19.22;90.31;100584.63;5113491;28;20024;-91
2023/07/13 09:52:24;;;;;;;1.75;0.68;;;;;;;19.60;87.76;100588.09;5113323;28;20024;-92
2023/07/13 09:54:53;;;;;;;4.25;0.70;;;;;;;19.90;86.06;100583.63;5111929;28;20119;-92
2023/07/13 09:57:23;;;;;;;1.00;0.50;;;;;;;20.02;81.92;100592.94;5112073;28;20055;-92
2023/07/13 09:59:51;;;;;;;0.93;0.50;;;;;;;19.61;78.68;100588.94;5113329;28;20031;-91
2023/07/13 10:02:26;;;;;;;3.67;0.80;;;;;;;19.57;84.25;100603.28;5113145;28;20028;-92
2023/07/13 10:04:58;;;;;;;1.80;0.50;;;;;;;19.62;80.10;100606.28;5113161;28;20026;-91
2023/07/13 10:07:24;;;;;;;;;;;;;;;19.72;78.73;100616.75;5112378;28;20030;-92
2023/07/13 10:09:57;;;;;;;1.55;0.60;;;;;;;19.59;80.06;100612.63;5111786;28;20010;-92
2023/07/13 10:12:25;;;;;;;2.80;0.60;;;;;;;19.28;86.13;100611.19;5113108;28;20023;-92
2023/07/13 10:14:56;;;;;;;2.38;0.70;;;;;;;19.28;87.56;100626.88;5112912;28;20020;-92
2023/07/13 10:17:30;;;;;;;1.85;0.70;;;;;;;18.92;88.01;100624.84;5113008;28;20019;-91
2023/07/13 10:20:02;;;;;;;0.65;0.52;;;;;;;19.22;84.60;100623.06;5112955;28;20103;-91
2023/07/13 10:22:39;;;;;;;1.80;0.50;;;;;;;19.11;80.90;100613.53;5111683;28;20453;-92
2023/07/13 10:25:18;;;;;;;2.47;0.90;;;;;;;19.51;83.13;100607.28;5111566;28;20427;-92
2023/07/13 10:27:44;;;;;;;1.10;0.70;;;;;;;19.51;79.07;100625.63;5112798;28;20024;-92
2023/07/13 10:30:19;;;;;;;1.15;0.50;;;;;;;19.46;79.77;100622.59;5111806;28;20477;-92
2023/07/13 10:32:46;;;;;;;2.15;0.57;;;;;;;19.51;77.16;100630.84;5112325;28;20433;-91
2023/07/13 10:35:14;;;;;;;5.15;0.63;;;;;;;19.28;76.09;100637.34;5112761;28;20023;-91
2023/07/13 10:37:53;;;;;;;3.28;0.73;;;;;;;19.00;76.38;100638.06;5113045;28;20034;-92
2023/07/13 10:40:33;;;;;;;3.80;1.10;;;;;;;18.50;79.62;100635.50;5112613;28;20019;-92
2023/07/13 10:43:02;;;;;;;3.42;0.85;;;;;;;18.68;78.54;100632.22;5112589;28;20118;-92
2023/07/13 10:45:29;;;;;;;1.33;0.55;;;;;;;18.78;77.48;100633.94;5112486;28;20053;-92
2023/07/13 10:47:56;;;;;;;2.40;1.33;;;;;;;18.81;74.06;100627.59;5112416;28;20031;-93
2023/07/13 10:50:24;;;;;;;1.88;0.70;;;;;;;18.80;73.82;100637.25;5112413;28;20058;-92
2023/07/13 10:52:57;;;;;;;1.38;0.55;;;;;;;19.05;74.10;100629.81;5112295;28;20032;-92
2023/07/13 10:55:48;;;;;;;1.10;0.40;;;;;;;19.27;73.96;100627.88;5112423;28;20024;-92
2023/07/13 10:58:22;;;;;;;0.70;0.40;;;;;;;19.51;74.47;100638.72;5112541;28;20027;-91
2023/07/13 11:01:15;;;;;;;2.08;0.60;;;;;;;19.87;71.50;100625.78;5112188;28;20114;-92
2023/07/13 11:03:43;;;;;;;1.35;0.85;;;;;;;20.21;68.59;100617.38;5107536;28;20090;-92
2023/07/13 11:06:11;;;;;;;2.17;0.80;;;;;;;20.47;67.57;100627.97;5112387;28;20080;-93
2023/07/13 11:08:52;;;;;;;3.13;0.75;;;;;;;21.78;64.63;100619.41;5111253;28;20443;-93
2023/07/13 11:11:38;;;;;;;2.75;0.73;;;;;;;21.61;61.56;100615.03;5112341;28;20049;-93
2023/07/13 11:14:25;;;;;;;1.65;0.80;;;;;;;21.87;62.79;100616.78;5112203;28;20496;-93
2023/07/13 11:16:51;;;;;;;3.55;0.98;;;;;;;21.92;59.75;100610.09;5112026;28;20080;-94
2023/07/13 11:19:16;;;;;;;3.45;0.70;;;;;;;21.74;59.76;100607.53;5112393;28;20439;-93
2023/07/13 11:22:11;;;;;;;2.92;0.75;;;;;;;21.50;60.50;100607.41;5112120;28;20062;-93